Time;durP1;ratioP1;P1;durP2;ratioP2;P2;SDS_P1;SDS_P2;PMS_P1;PMS_P2;Temp;Humidity;BMP_temperature;BMP_pressure;BME280_temperature;BME280_humidity;BME280_pressure;Samples;Min_cycle;Max_cycle;Signal;HPM_P1;HPM_P2
2021/12/13 00:02:24;;;;;;;17.85;11.90;;;;;;;4.54;54.52;101456.00;5031922;28;20831;-70
2021/12/13 00:05:01;;;;;;;16.92;12.15;;;;;;;4.66;54.17;101465.09;5032341;28;20442;-70
2021/12/13 00:07:32;;;;;;;10.93;9.30;;;;;;;4.69;54.15;101470.22;5030826;28;20417;-70
2021/12/13 00:10:07;;;;;;;10.02;8.52;;;;;;;4.64;54.38;101462.53;5028840;28;21010;-70
2021/12/13 00:12:38;;;;;;;11.43;9.55;;;;;;;4.66;54.17;101465.94;5031131;28;20421;-70
2021/12/13 00:15:11;;;;;;;11.68;9.10;;;;;;;4.64;54.25;101464.31;5031227;28;20424;-70
2021/12/13 00:17:44;;;;;;;13.98;10.88;;;;;;;4.63;54.36;101465.25;5027888;28;20508;-70
2021/12/13 00:20:19;;;;;;;13.27;9.77;;;;;;;4.65;54.31;101466.03;5027013;28;20777;-70
2021/12/13 00:22:49;;;;;;;9.82;8.20;;;;;;;4.61;54.28;101463.53;5028794;28;20546;-74
2021/12/13 00:25:20;;;;;;;9.80;8.43;;;;;;;4.61;54.29;101462.69;5018181;28;20493;-70
2021/12/13 00:27:53;;;;;;;9.80;7.53;;;;;;;4.52;54.53;101458.72;5029922;28;20525;-70
2021/12/13 00:30:30;;;;;;;9.15;7.78;;;;;;;4.52;54.73;101469.22;5031013;28;20446;-70
2021/12/13 00:33:08;;;;;;;10.73;8.48;;;;;;;4.60;54.38;101472.34;5031367;28;20462;-70
2021/12/13 00:35:42;;;;;;;14.35;10.23;;;;;;;4.57;54.45;101461.97;5029635;28;20468;-70
2021/12/13 00:38:11;;;;;;;16.00;10.50;;;;;;;4.58;54.56;101463.69;5016150;28;20517;-70
2021/12/13 00:40:42;;;;;;;13.57;8.80;;;;;;;4.52;54.83;101463.09;5031334;28;20418;-70
2021/12/13 00:43:18;;;;;;;12.38;9.10;;;;;;;4.64;54.34;101461.69;5029583;28;20433;-70
2021/12/13 00:45:53;;;;;;;8.38;7.40;;;;;;;4.62;54.51;101464.38;5030639;28;20498;-70
2021/12/13 00:48:21;;;;;;;7.20;6.18;;;;;;;4.64;54.43;101461.69;5031049;28;20501;-70
2021/12/13 00:50:55;;;;;;;6.20;5.60;;;;;;;4.64;54.40;101466.94;5031131;28;20489;-70
2021/12/13 00:53:23;;;;;;;7.05;6.00;;;;;;;4.63;54.39;101471.34;5031245;28;20476;-70
2021/12/13 00:55:51;;;;;;;7.07;6.38;;;;;;;4.64;54.44;101472.19;5030356;28;20916;-70
2021/12/13 00:58:19;;;;;;;6.32;5.72;;;;;;;4.65;54.32;101461.63;5031056;28;20520;-70
2021/12/13 01:00:50;;;;;;;6.65;5.60;;;;;;;4.64;54.22;101464.31;5031262;28;20505;-70
2021/12/13 01:03:20;;;;;;;7.35;5.78;;;;;;;4.61;54.22;101462.69;5030942;28;20546;-70
2021/12/13 01:06:13;;;;;;;6.72;5.82;;;;;;;4.64;54.24;101466.94;5030315;28;20792;-70
2021/12/13 01:09:16;;;;;;;8.37;6.40;;;;;;;4.55;54.60;101460.34;5031026;28;20749;-70
2021/12/13 01:11:52;;;;;;;8.07;6.18;;;;;;;4.63;54.27;101468.72;5019581;28;20417;-70
2021/12/13 01:14:43;;;;;;;9.38;7.40;;;;;;;4.56;54.34;101470.78;5015222;28;20442;-70
2021/12/13 01:17:21;;;;;;;7.68;5.95;;;;;;;4.56;54.40;101468.16;5030208;28;20410;-70
2021/12/13 01:19:55;;;;;;;5.68;5.00;;;;;;;4.56;54.67;101465.53;5029907;28;20453;-70
2021/12/13 01:22:47;;;;;;;5.43;4.80;;;;;;;4.51;54.35;101462.25;5029618;28;20784;-72
2021/12/13 01:25:38;;;;;;;4.57;4.18;;;;;;;4.34;54.72;101465.66;5012200;28;20422;-69
2021/12/13 01:28:10;;;;;;;4.45;4.05;;;;;;;4.45;54.49;101466.94;5029691;28;20468;-70
2021/12/13 01:30:41;;;;;;;4.40;3.70;;;;;;;4.50;54.40;101465.81;5030357;28;20418;-70
2021/12/13 01:33:12;;;;;;;4.22;3.83;;;;;;;4.46;54.60;101466.00;5030499;28;20424;-70
2021/12/13 01:35:42;;;;;;;4.88;4.40;;;;;;;4.49;54.47;101468.50;5029494;28;20442;-70
2021/12/13 01:38:16;;;;;;;5.32;4.82;;;;;;;4.31;54.96;101462.31;5029858;28;20430;-70
2021/12/13 01:40:51;;;;;;;4.93;3.58;;;;;;;4.29;54.98;101451.88;5030164;28;20923;-70
2021/12/13 01:43:24;;;;;;;4.28;3.88;;;;;;;4.32;54.88;101458.75;5030365;28;20454;-70
2021/12/13 01:45:53;;;;;;;4.78;4.00;;;;;;;4.33;54.91;101457.84;5029898;28;20951;-70
2021/12/13 01:48:24;;;;;;;4.30;3.90;;;;;;;4.37;54.88;101455.00;5030268;28;20414;-70
2021/12/13 01:51:03;;;;;;;4.15;3.75;;;;;;;4.23;55.18;101454.78;5029867;28;20920;-70
2021/12/13 01:53:38;;;;;;;3.97;3.58;;;;;;;4.34;54.95;101439.41;5029762;28;20422;-70
2021/12/13 01:56:23;;;;;;;4.10;3.70;;;;;;;4.37;54.98;101446.28;5028753;28;20950;-70
2021/12/13 01:58:51;;;;;;;4.10;3.70;;;;;;;4.29;55.25;101451.03;5030057;28;20433;-70
2021/12/13 02:01:22;;;;;;;4.15;3.72;;;;;;;4.41;54.91;101451.31;5029665;28;20417;-70
2021/12/13 02:03:59;;;;;;;4.47;4.07;;;;;;;4.39;55.03;101449.69;5028274;28;20518;-70
2021/12/13 02:06:37;;;;;;;5.37;4.87;;;;;;;4.36;55.00;101453.31;5029461;28;20416;-70
2021/12/13 02:09:10;;;;;;;5.30;4.80;;;;;;;4.33;55.25;101449.97;5029931;28;20421;-72
2021/12/13 02:11:38;;;;;;;4.63;4.20;;;;;;;4.22;55.40;101455.72;5029781;28;21010;-70
2021/12/13 02:14:12;;;;;;;4.60;4.20;;;;;;;4.20;55.63;101447.91;5029569;28;20502;-70
2021/12/13 02:16:59;;;;;;;4.70;4.18;;;;;;;4.36;55.43;101458.56;5029228;28;20450;-70
2021/12/13 02:19:38;;;;;;;4.30;3.90;;;;;;;4.36;55.22;101455.94;5029111;28;20426;-70
2021/12/13 02:22:22;;;;;;;4.05;3.65;;;;;;;4.30;55.28;101453.59;5027945;28;20407;-70
2021/12/13 02:24:50;;;;;;;4.40;4.00;;;;;;;4.22;55.61;101461.81;5012481;28;20521;-70
2021/12/13 02:27:22;;;;;;;4.30;3.90;;;;;;;4.38;55.21;101456.72;5029268;28;20502;-70
2021/12/13 02:29:51;;;;;;;4.20;3.80;;;;;;;4.37;55.41;101464.66;5028147;28;20521;-70
2021/12/13 02:32:18;;;;;;;4.18;3.70;;;;;;;4.34;55.51;101467.41;5029118;28;20502;-70
2021/12/13 02:34:46;;;;;;;5.22;4.65;;;;;;;4.37;55.27;101477.78;5029102;28;20414;-70
2021/12/13 02:37:13;;;;;;;5.10;4.70;;;;;;;4.43;55.01;101469.63;5029119;28;20441;-70
2021/12/13 02:39:45;;;;;;;5.22;4.72;;;;;;;4.33;55.46;101477.06;5029162;28;20437;-70
2021/12/13 02:42:14;;;;;;;5.20;4.70;;;;;;;4.33;55.25;101481.44;5028780;28;20410;-70
2021/12/13 02:44:45;;;;;;;6.68;5.40;;;;;;;4.18;55.84;101483.00;5029517;28;20501;-70
2021/12/13 02:47:18;;;;;;;5.90;5.30;;;;;;;4.24;55.46;101474.84;5029354;28;20424;-70
2021/12/13 02:49:45;;;;;;;7.50;5.88;;;;;;;4.22;55.47;101476.69;5029121;28;20543;-70
2021/12/13 02:52:17;;;;;;;7.63;6.20;;;;;;;4.18;55.68;101477.75;5027768;28;20493;-70
2021/12/13 02:54:48;;;;;;;7.07;5.78;;;;;;;4.19;55.68;101475.03;5028905;28;20418;-70
2021/12/13 02:57:22;;;;;;;5.75;4.85;;;;;;;4.09;55.88;101473.72;5029193;28;20497;-70
2021/12/13 02:59:55;;;;;;;6.47;5.15;;;;;;;4.19;55.65;101475.03;5028108;28;20800;-70
2021/12/13 03:02:25;;;;;;;5.40;4.50;;;;;;;4.22;55.46;101484.56;5012889;28;20410;-70
2021/12/13 03:04:53;;;;;;;6.47;5.72;;;;;;;4.22;55.45;101490.66;5029098;28;20414;-70
2021/12/13 03:07:25;;;;;;;347.67;239.23;;;;;;;4.13;55.66;101493.66;5028595;28;20497;-70
2021/12/13 03:09:55;;;;;;;16.55;12.75;;;;;;;4.20;55.55;101500.34;5028622;28;20425;-70
2021/12/13 03:12:26;;;;;;;134.00;123.80;;;;;;;4.09;55.85;101501.72;5028953;28;20441;-70
2021/12/13 03:14:57;;;;;;;24.07;22.23;;;;;;;4.14;55.61;101499.78;5029031;28;20450;-70
2021/12/13 03:17:28;;;;;;;38.08;35.33;;;;;;;4.05;56.05;101495.75;5027670;28;21220;-71
2021/12/13 03:20:11;;;;;;;15.95;14.75;;;;;;;4.08;55.96;101494.81;5032678;28;20452;-70
2021/12/13 03:23:08;;;;;;;14.73;13.57;;;;;;;4.12;55.91;101501.63;5032997;28;20508;-70
2021/12/13 03:25:59;;;;;;;15.13;14.02;;;;;;;4.28;55.34;101497.41;5022888;28;20414;-70
2021/12/13 03:28:44;;;;;;;10.30;9.60;;;;;;;4.17;55.78;101502.25;5018272;28;20410;-70
2021/12/13 03:31:13;;;;;;;15.30;14.25;;;;;;;4.19;55.41;101501.25;5031385;28;20448;-71
2021/12/13 03:33:45;;;;;;;11.43;10.48;;;;;;;4.15;55.64;101502.31;5032788;28;20418;-70
2021/12/13 03:36:16;;;;;;;10.15;9.07;;;;;;;4.15;55.69;101504.94;5032438;28;20488;-71
2021/12/13 03:38:47;;;;;;;12.55;11.40;;;;;;;4.17;55.54;101510.97;5032693;28;20426;-70
2021/12/13 03:41:19;;;;;;;11.90;10.70;;;;;;;4.00;56.16;101513.47;5032687;28;20445;-70
2021/12/13 03:43:49;;;;;;;14.15;12.95;;;;;;;4.16;55.65;101511.91;5032574;28;20489;-69
2021/12/13 03:46:19;;;;;;;12.05;11.05;;;;;;;4.05;56.00;101511.50;5032159;28;20525;-70
2021/12/13 03:48:47;;;;;;;30.90;28.70;;;;;;;3.93;56.30;101514.63;5032256;28;20814;-70
2021/12/13 03:51:18;;;;;;;18.63;17.23;;;;;;;3.98;56.42;101521.41;5032510;28;20419;-70
2021/12/13 03:53:47;;;;;;;10.15;9.25;;;;;;;4.09;55.99;101522.72;5031100;28;20414;-70
2021/12/13 03:56:26;;;;;;;14.30;13.20;;;;;;;4.19;55.41;101527.47;5030682;28;20441;-70
2021/12/13 03:58:57;;;;;;;12.32;11.23;;;;;;;4.14;55.47;101523.38;5031883;28;20425;-70
2021/12/13 04:01:27;;;;;;;17.38;16.10;;;;;;;4.04;55.81;101525.53;5031789;28;20950;-71
2021/12/13 04:03:58;;;;;;;11.57;10.65;;;;;;;4.08;55.72;101526.28;5032381;28;20501;-70
2021/12/13 04:06:25;;;;;;;10.52;9.63;;;;;;;4.12;55.67;101523.44;5032186;28;20452;-70
2021/12/13 04:08:56;;;;;;;17.70;16.55;;;;;;;4.12;55.55;101515.56;5030781;28;20424;-70
2021/12/13 04:11:27;;;;;;;12.07;11.07;;;;;;;4.17;55.44;101510.97;5031389;28;20421;-70
2021/12/13 04:14:04;;;;;;;9.32;8.63;;;;;;;4.27;55.35;101515.81;5030200;28;20417;-70
2021/12/13 04:16:47;;;;;;;6.57;5.97;;;;;;;4.13;55.45;101508.56;5030385;28;20788;-70
2021/12/13 04:19:19;;;;;;;9.00;8.30;;;;;;;4.21;55.16;101507.28;5030342;28;20433;-70
2021/12/13 04:21:50;;;;;;;11.70;10.90;;;;;;;4.20;55.00;101515.25;5029901;28;20425;-70
2021/12/13 04:24:20;;;;;;;12.43;11.57;;;;;;;4.34;54.97;101512.88;5016279;28;20448;-70
2021/12/13 04:26:53;;;;;;;8.83;8.13;;;;;;;4.45;54.58;101515.00;5030066;28;20446;-71
2021/12/13 04:29:25;;;;;;;15.27;14.07;;;;;;;4.43;54.60;101516.84;5029482;28;20410;-70
2021/12/13 04:31:53;;;;;;;15.02;13.82;;;;;;;4.25;55.24;101512.41;5029776;28;20414;-71
2021/12/13 04:34:23;;;;;;;18.23;16.83;;;;;;;4.30;55.03;101516.56;5027981;28;20418;-70
2021/12/13 04:36:53;;;;;;;16.13;14.77;;;;;;;4.14;55.29;101511.13;5029500;28;20812;-70
2021/12/13 04:39:27;;;;;;;23.67;21.55;;;;;;;4.28;54.88;101518.38;5027556;28;20435;-70
2021/12/13 04:41:59;;;;;;;25.05;22.35;;;;;;;4.10;55.22;101517.41;5029149;28;20939;-70
2021/12/13 04:44:32;;;;;;;29.98;25.48;;;;;;;4.22;55.07;101508.16;5028792;28;20442;-70
2021/12/13 04:47:05;;;;;;;48.58;44.25;;;;;;;3.97;55.70;101513.59;5027085;28;20776;-70
2021/12/13 04:49:33;;;;;;;33.37;30.23;;;;;;;3.97;55.74;101517.09;5030580;28;20501;-69
2021/12/13 04:52:03;;;;;;;19.02;17.13;;;;;;;3.81;56.09;101514.25;5027386;28;20422;-69
2021/12/13 04:54:33;;;;;;;21.92;19.90;;;;;;;3.84;56.06;101515.88;5028703;28;20719;-70
2021/12/13 04:57:03;;;;;;;13.95;12.52;;;;;;;4.06;55.31;101512.38;5027763;28;20501;-70
2021/12/13 04:59:31;;;;;;;10.93;9.82;;;;;;;3.98;55.55;101510.91;5029788;28;20434;-70
2021/12/13 05:02:00;;;;;;;17.20;15.48;;;;;;;3.95;55.97;101511.06;5029511;28;21129;-70
2021/12/13 05:04:29;;;;;;;32.80;29.98;;;;;;;3.85;56.08;101514.13;5028949;28;20924;-70
2021/12/13 05:06:58;;;;;;;32.38;29.52;;;;;;;3.91;56.20;101519.09;5029632;28;20792;-70
2021/12/13 05:09:28;;;;;;;25.08;22.77;;;;;;;3.95;55.89;101515.44;5028508;28;20500;-70
2021/12/13 05:12:04;;;;;;;25.05;22.75;;;;;;;4.00;55.72;101516.94;5028715;28;20450;-70
2021/12/13 05:14:36;;;;;;;23.25;21.13;;;;;;;3.88;55.87;101525.31;4993930;28;20432;-70
2021/12/13 05:17:10;;;;;;;45.13;41.35;;;;;;;3.86;55.98;101519.28;5028683;28;20956;-70
2021/12/13 05:19:40;;;;;;;30.00;27.27;;;;;;;3.83;56.13;101523.81;5028932;28;20437;-70
2021/12/13 05:22:10;;;;;;;24.95;22.55;;;;;;;3.88;55.97;101524.47;5028905;28;20410;-71
2021/12/13 05:24:50;;;;;;;20.48;18.58;;;;;;;3.93;55.82;101528.59;5026912;28;20420;-69
2021/12/13 05:27:25;;;;;;;19.23;17.58;;;;;;;3.90;55.97;101520.88;5029321;28;20414;-70
2021/12/13 05:30:04;;;;;;;19.10;17.67;;;;;;;3.83;56.03;101521.19;5025820;28;20414;-70
2021/12/13 05:32:35;;;;;;;8.00;7.30;;;;;;;3.80;56.34;101523.03;5005976;28;21224;-70
2021/12/13 05:35:08;;;;;;;18.87;17.47;;;;;;;3.71;56.46;101523.41;5029524;28;20508;-70
2021/12/13 05:37:40;;;;;;;29.30;27.08;;;;;;;3.79;56.48;101523.94;5031043;28;20422;-71
2021/12/13 05:40:11;;;;;;;8.02;7.22;;;;;;;3.86;56.11;101524.53;5030122;28;20468;-71
2021/12/13 05:42:42;;;;;;;8.20;7.50;;;;;;;3.86;56.40;101528.94;5028516;28;20477;-70
2021/12/13 05:45:15;;;;;;;37.17;34.17;;;;;;;3.85;56.35;101524.59;5029522;28;20469;-70
2021/12/13 05:47:54;;;;;;;23.80;22.00;;;;;;;3.91;56.23;101527.81;5028777;28;20456;-69
2021/12/13 05:50:30;;;;;;;13.50;12.30;;;;;;;3.85;56.51;101537.69;5029254;28;20422;-70
2021/12/13 05:53:04;;;;;;;14.30;12.90;;;;;;;4.01;56.09;101546.63;5029906;28;20998;-70
2021/12/13 05:55:31;;;;;;;15.00;13.60;;;;;;;3.93;56.34;101535.63;5030035;28;20410;-70
2021/12/13 05:57:58;;;;;;;9.60;8.60;;;;;;;3.96;55.97;101543.38;5029634;28;20497;-70
2021/12/13 06:00:32;;;;;;;12.63;11.32;;;;;;;4.07;55.94;101551.63;5029727;28;20573;-70
2021/12/13 06:03:03;;;;;;;30.08;27.48;;;;;;;4.17;55.75;101554.72;5029519;28;20410;-71
2021/12/13 06:05:34;;;;;;;18.27;16.67;;;;;;;4.02;56.01;101553.59;5028744;28;20472;-71
2021/12/13 06:08:03;;;;;;;25.75;23.83;;;;;;;4.13;55.70;101553.13;5030512;28;20493;-71
2021/12/13 06:10:41;;;;;;;12.68;11.48;;;;;;;4.16;55.77;101550.38;5029971;28;20505;-71
2021/12/13 06:13:12;;;;;;;27.25;24.83;;;;;;;4.16;55.62;101556.47;5029759;28;20409;-72
2021/12/13 06:15:42;;;;;;;16.20;14.73;;;;;;;4.44;54.98;101549.19;5029896;28;20476;-71
2021/12/13 06:18:20;;;;;;;12.95;10.77;;;;;;;4.78;54.05;101556.41;5030117;28;20416;-71
2021/12/13 06:20:54;;;;;;;16.15;14.48;;;;;;;4.59;54.37;101557.22;5029769;28;20517;-71
2021/12/13 06:23:25;;;;;;;10.05;9.00;;;;;;;4.80;54.10;101554.56;5029785;28;20977;-72
2021/12/13 06:25:57;;;;;;;21.23;19.53;;;;;;;5.01;53.44;101577.22;5029881;28;21014;-71
2021/12/13 06:28:27;;;;;;;18.00;16.48;;;;;;;5.05;53.21;101585.84;5030090;28;20485;-71
2021/12/13 06:31:00;;;;;;;11.07;9.45;;;;;;;5.01;53.34;101582.50;5029870;28;20410;-71
2021/12/13 06:33:29;;;;;;;9.83;7.90;;;;;;;5.14;53.18;101584.53;5029949;28;20537;-71
2021/12/13 06:35:58;;;;;;;11.90;10.70;;;;;;;5.14;53.23;101587.19;5029632;28;20501;-71
2021/12/13 06:38:55;;;;;;;15.50;11.30;;;;;;;5.01;53.47;101590.38;5029610;28;20497;-72
2021/12/13 06:41:36;;;;;;;17.38;15.57;;;;;;;5.16;53.08;101580.06;4968563;28;20482;-71
2021/12/13 06:44:06;;;;;;;15.65;14.05;;;;;;;5.39;52.45;101577.25;5021384;28;20410;-71
2021/12/13 06:46:40;;;;;;;28.77;26.48;;;;;;;5.67;51.93;101582.94;5029532;28;20417;-71
2021/12/13 06:49:15;;;;;;;16.17;14.47;;;;;;;5.93;51.26;101590.41;5028496;28;20410;-72
2021/12/13 06:51:50;;;;;;;11.80;10.20;;;;;;;5.87;51.29;101589.84;5029296;28;20526;-71
2021/12/13 06:54:20;;;;;;;15.40;13.90;;;;;;;6.05;50.91;101591.59;5029646;28;20406;-71
2021/12/13 06:56:55;;;;;;;15.70;14.10;;;;;;;6.09;50.90;101587.91;5029643;28;20488;-71
2021/12/13 06:59:22;;;;;;;15.98;14.57;;;;;;;6.34;50.22;101597.19;5029263;28;20868;-70
2021/12/13 07:02:12;;;;;;;17.90;16.48;;;;;;;6.45;49.83;101589.59;5029400;28;20927;-71
2021/12/13 07:04:57;;;;;;;50.40;46.70;;;;;;;6.70;49.40;101590.94;5029451;28;20440;-71
2021/12/13 07:07:29;;;;;;;10.07;8.98;;;;;;;7.15;48.24;101589.41;5028169;28;20410;-71
2021/12/13 07:09:58;;;;;;;8.93;7.55;;;;;;;7.22;47.84;101583.72;5029194;28;20757;-71
2021/12/13 07:12:28;;;;;;;12.17;9.47;;;;;;;7.53;47.29;101589.09;5029515;28;20497;-72
2021/12/13 07:14:56;;;;;;;10.20;8.70;;;;;;;7.80;46.70;101582.22;5029024;28;20502;-71
2021/12/13 07:17:30;;;;;;;11.80;10.10;;;;;;;7.92;46.27;101591.22;5029476;28;20489;-71
2021/12/13 07:19:59;;;;;;;11.43;10.13;;;;;;;7.90;46.53;101594.91;5029362;28;20430;-72
2021/12/13 07:22:30;;;;;;;12.73;11.43;;;;;;;8.02;46.28;101597.69;5028402;28;20414;-71
2021/12/13 07:25:07;;;;;;;10.60;8.90;;;;;;;8.30;45.51;101604.00;5029100;28;20932;-71
2021/12/13 07:27:41;;;;;;;10.07;8.63;;;;;;;8.55;45.12;101608.69;5029047;28;20410;-71
2021/12/13 07:30:12;;;;;;;9.50;8.45;;;;;;;8.50;45.13;101612.56;5029247;28;20418;-71
2021/12/13 07:32:47;;;;;;;14.85;11.82;;;;;;;9.13;44.19;101614.00;5029190;28;20983;-71
2021/12/13 07:35:18;;;;;;;10.15;8.18;;;;;;;9.09;43.85;101621.28;5029285;28;20486;-71
2021/12/13 07:37:50;;;;;;;9.20;7.37;;;;;;;9.27;43.86;101626.38;5029025;28;20486;-71
2021/12/13 07:40:37;;;;;;;10.13;6.45;;;;;;;9.15;43.65;101631.47;5028160;28;20457;-71
2021/12/13 07:43:11;;;;;;;9.77;7.82;;;;;;;8.59;44.55;101639.25;5029285;28;20402;-71
2021/12/13 07:45:43;;;;;;;14.00;9.55;;;;;;;8.40;44.98;101643.91;5028917;28;20413;-72
2021/12/13 07:48:14;;;;;;;14.77;10.60;;;;;;;8.38;45.29;101635.22;5028878;28;20855;-72
2021/12/13 07:50:44;;;;;;;15.23;10.93;;;;;;;8.31;45.23;101647.91;5028883;28;20531;-71
2021/12/13 07:53:18;;;;;;;12.82;9.25;;;;;;;8.16;45.40;101636.47;5028902;28;20926;-71
2021/12/13 07:55:49;;;;;;;11.55;8.95;;;;;;;8.26;45.63;101647.34;5028804;28;20421;-71
2021/12/13 07:58:32;;;;;;;9.85;8.20;;;;;;;8.37;45.15;101638.78;5027600;28;20410;-71
2021/12/13 08:01:09;;;;;;;11.52;8.68;;;;;;;8.51;45.18;101646.78;5028754;28;20429;-71
2021/12/13 08:03:45;;;;;;;15.38;11.48;;;;;;;8.51;45.13;101656.50;5029558;28;20493;-71
2021/12/13 08:06:12;;;;;;;12.95;9.52;;;;;;;8.58;45.24;101655.22;5031412;28;20772;-71
2021/12/13 08:08:48;;;;;;;11.65;7.95;;;;;;;8.44;45.11;101649.91;5032430;28;20414;-70
2021/12/13 08:11:18;;;;;;;10.57;7.55;;;;;;;8.22;45.58;101646.66;5032210;28;20497;-71
2021/12/13 08:13:57;;;;;;;13.07;8.93;;;;;;;8.14;46.11;101648.91;5032460;28;20418;-71
2021/12/13 08:16:32;;;;;;;14.63;9.00;;;;;;;7.85;46.80;101657.63;5032480;28;20414;-71
2021/12/13 08:19:10;;;;;;;18.48;11.35;;;;;;;7.88;46.89;101660.09;5032019;28;20414;-71
2021/12/13 08:21:40;;;;;;;17.63;10.63;;;;;;;7.72;47.39;101657.47;5032139;28;20907;-71
2021/12/13 08:24:08;;;;;;;12.13;8.30;;;;;;;7.46;48.05;101661.53;5032010;28;20493;-71
2021/12/13 08:26:38;;;;;;;8.63;7.00;;;;;;;7.35;48.37;101655.06;5032076;28;20500;-71
2021/12/13 08:29:11;;;;;;;7.70;6.90;;;;;;;7.37;48.44;101671.66;5032167;28;20410;-71
2021/12/13 08:31:39;;;;;;;9.93;8.48;;;;;;;7.68;47.86;101659.41;5031969;28;20411;-71
2021/12/13 08:34:11;;;;;;;11.70;9.10;;;;;;;7.97;47.24;101663.06;5031973;28;20484;-72
2021/12/13 08:36:41;;;;;;;10.23;8.20;;;;;;;8.26;46.63;101662.34;5032188;28;20440;-72
2021/12/13 08:39:12;;;;;;;8.80;7.25;;;;;;;8.30;46.03;101661.22;5032040;28;20816;-72
2021/12/13 08:41:42;;;;;;;17.02;12.00;;;;;;;8.57;45.64;101662.25;5032041;28;20436;-71
2021/12/13 08:44:18;;;;;;;22.05;15.75;;;;;;;9.25;44.30;101652.06;5031686;28;20537;-72
2021/12/13 08:46:48;;;;;;;15.93;12.03;;;;;;;9.80;43.50;101659.97;5031722;28;20869;-71
2021/12/13 08:49:25;;;;;;;16.05;9.82;;;;;;;10.55;42.02;101656.00;5030610;28;20497;-72
2021/12/13 08:51:59;;;;;;;14.77;8.95;;;;;;;10.88;41.21;101639.56;5031502;28;20497;-72
2021/12/13 08:54:38;;;;;;;10.23;7.10;;;;;;;11.03;40.96;101638.50;5031774;28;20493;-72
2021/12/13 08:57:09;;;;;;;10.65;7.75;;;;;;;11.09;40.47;101633.72;5031614;28;20771;-72
2021/12/13 08:59:48;;;;;;;13.15;9.35;;;;;;;10.72;40.82;101637.13;5031661;28;20501;-72
2021/12/13 09:02:16;;;;;;;17.52;13.93;;;;;;;10.53;41.31;101637.56;5031722;28;20513;-72
2021/12/13 09:05:02;;;;;;;16.40;10.88;;;;;;;10.03;41.88;101636.44;5031364;28;20897;-72
2021/12/13 09:07:29;;;;;;;10.27;8.57;;;;;;;9.78;43.18;101642.50;5031240;28;20938;-73
2021/12/13 09:09:58;;;;;;;11.88;8.85;;;;;;;9.94;43.13;101640.56;5031227;28;20489;-73
2021/12/13 09:12:32;;;;;;;10.43;7.60;;;;;;;10.31;42.02;101645.25;5013646;28;20418;-73
2021/12/13 09:15:02;;;;;;;10.60;7.53;;;;;;;11.03;41.37;101646.47;5030162;28;20489;-74
2021/12/13 09:17:34;;;;;;;12.43;7.38;;;;;;;10.98;41.05;101648.56;5031364;28;20442;-74
2021/12/13 09:20:12;;;;;;;13.02;7.85;;;;;;;11.12;40.67;101641.47;5030007;28;20493;-74
2021/12/13 09:22:41;;;;;;;10.15;6.90;;;;;;;11.14;40.81;101648.38;5031334;28;20414;-74
2021/12/13 09:25:12;;;;;;;7.95;5.68;;;;;;;10.93;40.94;101648.06;5031340;28;20421;-74
2021/12/13 09:27:47;;;;;;;7.93;5.78;;;;;;;10.85;40.98;101637.16;5030931;28;20410;-74
2021/12/13 09:30:27;;;;;;;8.00;5.50;;;;;;;10.74;40.99;101632.56;5030784;28;21003;-74
2021/12/13 09:32:58;;;;;;;10.15;7.15;;;;;;;10.62;41.10;101636.94;5030834;28;20764;-74
2021/12/13 09:35:33;;;;;;;9.10;6.30;;;;;;;10.83;41.13;101639.91;5028581;28;20422;-74
2021/12/13 09:38:04;;;;;;;10.73;7.13;;;;;;;10.96;41.06;101650.50;5030191;28;20859;-73
2021/12/13 09:40:37;;;;;;;11.63;9.05;;;;;;;10.91;41.25;101652.63;5030363;28;20430;-74
2021/12/13 09:43:06;;;;;;;11.18;8.90;;;;;;;10.83;41.36;101652.31;5030629;28;20505;-74
2021/12/13 09:45:40;;;;;;;11.07;8.43;;;;;;;11.00;40.69;101635.22;5030547;28;20417;-74
2021/12/13 09:48:23;;;;;;;13.57;9.48;;;;;;;10.98;40.99;101623.88;5029257;28;20414;-74
2021/12/13 09:50:56;;;;;;;14.00;10.37;;;;;;;11.11;41.06;101624.72;5030407;28;20557;-74
2021/12/13 09:53:26;;;;;;;14.77;10.40;;;;;;;10.93;41.30;101621.56;5030349;28;20498;-74
2021/12/13 09:55:53;;;;;;;16.45;11.70;;;;;;;10.94;41.55;101625.03;5030412;28;20414;-74
2021/12/13 09:58:23;;;;;;;18.38;12.52;;;;;;;11.01;41.58;101619.22;5030692;28;20426;-73
2021/12/13 10:00:57;;;;;;;16.42;11.90;;;;;;;11.17;41.41;101616.34;5030454;28;20430;-74
2021/12/13 10:03:29;;;;;;;16.80;10.83;;;;;;;11.24;41.47;101614.09;5030257;28;20402;-74
2021/12/13 10:06:00;;;;;;;136.75;96.57;;;;;;;11.21;41.54;101614.28;5030490;28;20413;-74
2021/12/13 10:08:38;;;;;;;20.07;12.50;;;;;;;11.05;41.93;101611.03;5030216;28;20417;-73
2021/12/13 10:11:11;;;;;;;15.35;13.32;;;;;;;11.15;41.74;101614.72;5030726;28;20434;-74
2021/12/13 10:13:41;;;;;;;30.08;27.45;;;;;;;11.04;41.96;101612.84;5030292;28;20413;-73
2021/12/13 10:16:12;;;;;;;18.45;16.42;;;;;;;11.31;41.44;101617.13;5029906;28;20497;-74
2021/12/13 10:18:41;;;;;;;13.15;9.25;;;;;;;11.37;41.63;101616.69;5028763;28;20501;-73
2021/12/13 10:21:15;;;;;;;11.23;8.48;;;;;;;11.47;41.20;101617.72;5029709;28;20426;-74
2021/12/13 10:23:46;;;;;;;12.57;8.50;;;;;;;11.50;41.18;101614.88;5029779;28;20773;-74
2021/12/13 10:26:15;;;;;;;12.27;10.27;;;;;;;11.52;41.73;101609.47;5030035;28;20417;-74
2021/12/13 10:28:53;;;;;;;11.93;9.40;;;;;;;11.35;42.32;101610.66;5029593;28;20502;-74
2021/12/13 10:31:26;;;;;;;8.43;6.70;;;;;;;11.36;42.62;101626.47;5029701;28;20463;-74
2021/12/13 10:33:55;;;;;;;14.77;12.10;;;;;;;11.43;42.60;101635.69;5028917;28;20406;-74
2021/12/13 10:36:27;;;;;;;16.65;14.23;;;;;;;11.38;42.77;101624.56;5030045;28;20498;-74
2021/12/13 10:38:58;;;;;;;17.30;13.63;;;;;;;11.42;42.42;101631.34;5030027;28;20413;-74
2021/12/13 10:41:29;;;;;;;15.00;13.48;;;;;;;11.46;42.22;101628.47;5029509;28;20865;-74
2021/12/13 10:44:00;;;;;;;24.65;16.00;;;;;;;11.54;42.07;101620.81;5029701;28;20490;-74
2021/12/13 10:46:35;;;;;;;22.05;16.27;;;;;;;11.59;42.28;101622.13;5029599;28;20421;-74
2021/12/13 10:49:06;;;;;;;25.45;21.10;;;;;;;11.54;42.46;101620.81;5029607;28;20967;-74
2021/12/13 10:51:40;;;;;;;17.48;13.27;;;;;;;11.50;42.25;101622.81;5029439;28;20892;-74
2021/12/13 10:54:10;;;;;;;23.65;16.60;;;;;;;11.56;42.14;101627.69;5029468;28;20440;-74
2021/12/13 10:56:42;;;;;;;22.10;15.70;;;;;;;11.86;41.92;101623.75;5029811;28;20410;-74
2021/12/13 10:59:11;;;;;;;31.95;21.48;;;;;;;11.93;41.97;101624.19;5029151;28;20428;-75
2021/12/13 11:01:43;;;;;;;31.40;18.98;;;;;;;11.89;41.96;101625.38;5028272;28;20514;-75
2021/12/13 11:04:13;;;;;;;23.42;16.40;;;;;;;11.70;42.33;101633.78;5029318;28;20446;-74
2021/12/13 11:06:43;;;;;;;20.02;13.90;;;;;;;11.76;42.33;101622.72;5029576;28;20855;-74
2021/12/13 11:09:19;;;;;;;19.45;15.20;;;;;;;11.89;42.22;101626.22;5028416;28;20442;-74
2021/12/13 11:11:49;;;;;;;23.20;16.03;;;;;;;11.84;41.79;101623.03;5029571;28;20469;-74
2021/12/13 11:14:21;;;;;;;26.50;16.15;;;;;;;11.50;42.42;101625.47;5029368;28;20497;-74
2021/12/13 11:16:56;;;;;;;18.45;12.82;;;;;;;11.35;42.65;101626.56;5029331;28;20409;-74
2021/12/13 11:19:31;;;;;;;22.38;15.65;;;;;;;11.43;42.79;101632.16;5028241;28;20497;-74
2021/12/13 11:22:04;;;;;;;19.90;14.50;;;;;;;11.33;43.00;101636.44;5029537;28;20516;-74
2021/12/13 11:24:33;;;;;;;20.40;13.00;;;;;;;11.43;42.80;101635.69;5028212;28;20455;-74
2021/12/13 11:27:04;;;;;;;14.38;10.80;;;;;;;11.46;42.27;101633.78;5029069;28;20497;-74
2021/12/13 11:29:32;;;;;;;23.15;14.05;;;;;;;11.32;42.88;101634.75;5028009;28;20493;-74
2021/12/13 11:32:29;;;;;;;19.67;12.57;;;;;;;11.23;43.12;101628.28;5029122;28;20974;-73
2021/12/13 11:35:30;;;;;;;36.40;22.73;;;;;;;11.20;42.83;101626.72;5023303;28;20410;-73
2021/12/13 11:38:09;;;;;;;29.50;19.23;;;;;;;11.30;43.03;101618.94;5029190;28;20406;-73
2021/12/13 11:40:58;;;;;;;23.48;16.83;;;;;;;11.22;42.67;101624.78;5032397;28;20406;-73
2021/12/13 11:43:53;;;;;;;18.40;13.27;;;;;;;11.21;42.80;101615.16;5032887;28;20493;-73
2021/12/13 11:47:02;;;;;;;19.17;11.68;;;;;;;11.22;42.81;101608.03;5032742;28;20854;-73
2021/12/13 11:49:46;;;;;;;23.02;15.15;;;;;;;11.33;42.68;101600.16;5000291;28;20489;-73
2021/12/13 11:52:52;;;;;;;13.37;10.70;;;;;;;11.19;42.68;101597.63;5031552;28;20513;-73